Aérodrome :
LOGIN :

S'inscrire | Disclaimer

   EN    FR    IT 

 










Légende :    VFR   VFR Marginal   IFR   IFR Intensif   IFR Très Intensif
Visi : 
Plafond : 
>= 8 km
>= 3000ft
5 à 8 km
1000 à 3000 ft
1500m à 5 km
500 à 1000 ft
800 à 1500m
200 à 500 ft
< 800m
< 200 ft
Symboles :   Orages  Brouillard  Fortes neiges  Fortes précipitations  Vent > 20 kt
SIGMETs :   Divers  Orages  Givrage  Turbulence  Onde Orograph.  Cendres Volcan.






- Altitude de l'aérodrome : 1036 ft
- Code IATA : CLJ


LRCL - Cluj-Napoca International

DERNIER METAR :
  • 270730Z 25003KT 2500 BR NSC M01/M02 Q1018 R07/15//95

METARs EXPIRÉS :
  • 270700Z 00000KT 2000 BR NSC M02/M03 Q1018 R07/15//95
  • 270630Z 29001KT 1500 R25/1600U BR NSC M03/M03 Q1018 R07/15//95
  • 270600Z VRB01KT 2000 BR FEW055 M02/M03 Q1018 R07/15//95
  • 270530Z 10002KT 3000 BR BKN055 M03/M03 Q1018 R07/15//95
  • 270500Z 00000KT 3000 BR BKN055 M03/M04 Q1018 R07/15//95
  • 270430Z 00000KT 3000 BR SCT054 M03/M03 Q1018 R07/15//95

TAF TAF LRCL
Valide du 27 à 06h jusqu'au 27 à 15h UTC


270500Z 2706/2715 VRB04KT 3000 BR BKN050
TEMPO 2706/2708 1500 BR BKN010
BECMG 2708/2710 9999 NSW



MET'MAP, la Météo Aéronautique d'un coup d'oeil ! - Copyright ORBIFLY Décembre 2007 - Disclaimer

ORBIFLY MET'MAP TEAM :

Programmation & Développement : Alexandra Zaïnal
Sur une idée originale de : Baudouin d'Aumeries
Assistance à la programmation : Marc-Olivier Méhu
Soutien technique & logistique : Manuel Goepfert

Contact : metmap@orbifly.com




SOURCES & CREDITS :

   NOAA